sensor_id;sensor_type;location;lat;lon;timestamp;P1;durP1;ratioP1;P2;durP2;ratioP2
30378;SDS011;17168;49.164;9.060;2023-12-20T00:03:36;5.03;;;2.25;;
30378;SDS011;17168;49.164;9.060;2023-12-20T00:06:36;3.40;;;1.70;;
30378;SDS011;17168;49.164;9.060;2023-12-20T00:09:11;3.85;;;1.85;;
30378;SDS011;17168;49.164;9.060;2023-12-20T00:11:43;4.10;;;1.75;;
30378;SDS011;17168;49.164;9.060;2023-12-20T00:14:16;4.57;;;2.00;;
30378;SDS011;17168;49.164;9.060;2023-12-20T00:17:06;4.15;;;1.95;;
30378;SDS011;17168;49.164;9.060;2023-12-20T00:19:42;4.15;;;1.88;;
30378;SDS011;17168;49.164;9.060;2023-12-20T00:22:28;3.33;;;1.60;;
30378;SDS011;17168;49.164;9.060;2023-12-20T00:25:04;3.80;;;2.03;;
30378;SDS011;17168;49.164;9.060;2023-12-20T00:27:36;3.70;;;1.85;;
30378;SDS011;17168;49.164;9.060;2023-12-20T00:30:10;4.38;;;1.90;;
30378;SDS011;17168;49.164;9.060;2023-12-20T00:32:43;4.15;;;2.13;;
30378;SDS011;17168;49.164;9.060;2023-12-20T00:35:20;4.05;;;2.20;;
30378;SDS011;17168;49.164;9.060;2023-12-20T00:37:58;4.05;;;2.33;;
30378;SDS011;17168;49.164;9.060;2023-12-20T00:40:31;5.50;;;2.72;;
30378;SDS011;17168;49.164;9.060;2023-12-20T00:43:05;6.35;;;3.13;;
30378;SDS011;17168;49.164;9.060;2023-12-20T01:11:05;7.97;;;3.00;;
30378;SDS011;17168;49.164;9.060;2023-12-20T01:13:37;5.28;;;2.70;;
30378;SDS011;17168;49.164;9.060;2023-12-20T01:16:10;7.68;;;3.67;;
30378;SDS011;17168;49.164;9.060;2023-12-20T01:18:45;6.78;;;3.05;;
30378;SDS011;17168;49.164;9.060;2023-12-20T01:21:35;5.35;;;2.50;;
30378;SDS011;17168;49.164;9.060;2023-12-20T01:24:13;4.93;;;2.78;;
30378;SDS011;17168;49.164;9.060;2023-12-20T01:26:49;5.88;;;2.17;;
30378;SDS011;17168;49.164;9.060;2023-12-20T01:29:24;5.97;;;3.03;;
30378;SDS011;17168;49.164;9.060;2023-12-20T01:32:26;6.13;;;3.08;;
30378;SDS011;17168;49.164;9.060;2023-12-20T01:35:06;7.03;;;2.92;;
30378;SDS011;17168;49.164;9.060;2023-12-20T01:55:17;4.95;;;2.58;;
30378;SDS011;17168;49.164;9.060;2023-12-20T01:58:33;4.82;;;2.47;;
30378;SDS011;17168;49.164;9.060;2023-12-20T02:07:06;4.63;;;2.42;;
30378;SDS011;17168;49.164;9.060;2023-12-20T02:09:47;6.68;;;3.08;;
30378;SDS011;17168;49.164;9.060;2023-12-20T03:08:24;5.75;;;2.97;;
30378;SDS011;17168;49.164;9.060;2023-12-20T03:11:31;4.70;;;1.98;;
30378;SDS011;17168;49.164;9.060;2023-12-20T03:14:04;5.40;;;2.60;;
30378;SDS011;17168;49.164;9.060;2023-12-20T03:16:39;5.20;;;2.33;;
30378;SDS011;17168;49.164;9.060;2023-12-20T03:21:22;6.30;;;2.45;;
30378;SDS011;17168;49.164;9.060;2023-12-20T03:22:56;7.43;;;3.35;;
30378;SDS011;17168;49.164;9.060;2023-12-20T03:25:33;5.30;;;2.22;;
30378;SDS011;17168;49.164;9.060;2023-12-20T03:28:11;5.00;;;2.25;;
30378;SDS011;17168;49.164;9.060;2023-12-20T03:34:40;5.97;;;2.72;;
30378;SDS011;17168;49.164;9.060;2023-12-20T03:37:12;5.07;;;2.47;;
30378;SDS011;17168;49.164;9.060;2023-12-20T03:39:45;5.28;;;2.70;;
30378;SDS011;17168;49.164;9.060;2023-12-20T03:42:20;5.18;;;2.00;;
30378;SDS011;17168;49.164;9.060;2023-12-20T03:44:53;4.93;;;2.75;;
30378;SDS011;17168;49.164;9.060;2023-12-20T03:47:26;4.30;;;2.08;;
30378;SDS011;17168;49.164;9.060;2023-12-20T03:50:12;5.03;;;2.03;;
30378;SDS011;17168;49.164;9.060;2023-12-20T03:56:07;4.40;;;1.77;;
30378;SDS011;17168;49.164;9.060;2023-12-20T03:58:45;5.75;;;2.25;;
30378;SDS011;17168;49.164;9.060;2023-12-20T04:01:17;4.47;;;2.38;;
30378;SDS011;17168;49.164;9.060;2023-12-20T04:03:51;5.82;;;2.75;;
30378;SDS011;17168;49.164;9.060;2023-12-20T04:06:26;4.82;;;2.13;;
30378;SDS011;17168;49.164;9.060;2023-12-20T04:08:59;5.03;;;2.33;;
30378;SDS011;17168;49.164;9.060;2023-12-20T04:11:32;4.43;;;2.38;;
30378;SDS011;17168;49.164;9.060;2023-12-20T04:14:07;4.57;;;2.42;;
30378;SDS011;17168;49.164;9.060;2023-12-20T04:16:39;4.53;;;2.15;;
30378;SDS011;17168;49.164;9.060;2023-12-20T04:19:18;6.35;;;3.13;;
30378;SDS011;17168;49.164;9.060;2023-12-20T04:21:54;5.40;;;2.50;;
30378;SDS011;17168;49.164;9.060;2023-12-20T04:24:33;5.50;;;2.50;;
30378;SDS011;17168;49.164;9.060;2023-12-20T04:27:05;4.93;;;2.13;;
30378;SDS011;17168;49.164;9.060;2023-12-20T04:29:41;4.20;;;2.20;;
30378;SDS011;17168;49.164;9.060;2023-12-20T04:32:14;6.50;;;3.00;;
30378;SDS011;17168;49.164;9.060;2023-12-20T04:34:46;6.00;;;3.00;;
30378;SDS011;17168;49.164;9.060;2023-12-20T04:37:21;6.38;;;3.42;;
30378;SDS011;17168;49.164;9.060;2023-12-20T04:40:03;5.63;;;3.15;;
30378;SDS011;17168;49.164;9.060;2023-12-20T04:42:37;5.57;;;3.10;;
30378;SDS011;17168;49.164;9.060;2023-12-20T04:45:12;6.63;;;2.92;;
30378;SDS011;17168;49.164;9.060;2023-12-20T04:47:47;5.47;;;2.75;;
30378;SDS011;17168;49.164;9.060;2023-12-20T04:50:22;5.35;;;2.90;;
30378;SDS011;17168;49.164;9.060;2023-12-20T04:53:40;5.80;;;2.65;;
30378;SDS011;17168;49.164;9.060;2023-12-20T04:56:34;5.28;;;2.92;;
30378;SDS011;17168;49.164;9.060;2023-12-20T04:59:06;5.75;;;2.88;;
30378;SDS011;17168;49.164;9.060;2023-12-20T05:01:45;5.63;;;2.97;;
30378;SDS011;17168;49.164;9.060;2023-12-20T05:04:30;6.15;;;3.10;;
30378;SDS011;17168;49.164;9.060;2023-12-20T05:07:08;6.90;;;4.22;;
30378;SDS011;17168;49.164;9.060;2023-12-20T05:09:45;6.75;;;3.72;;
30378;SDS011;17168;49.164;9.060;2023-12-20T05:12:18;6.28;;;3.35;;
30378;SDS011;17168;49.164;9.060;2023-12-20T05:14:51;7.15;;;3.83;;
30378;SDS011;17168;49.164;9.060;2023-12-20T05:17:39;5.93;;;3.72;;
30378;SDS011;17168;49.164;9.060;2023-12-20T05:20:14;6.32;;;3.53;;
30378;SDS011;17168;49.164;9.060;2023-12-20T05:23:06;6.75;;;3.40;;
30378;SDS011;17168;49.164;9.060;2023-12-20T05:25:44;7.60;;;3.80;;
30378;SDS011;17168;49.164;9.060;2023-12-20T05:28:17;6.40;;;4.03;;
30378;SDS011;17168;49.164;9.060;2023-12-20T05:31:15;7.72;;;3.97;;
30378;SDS011;17168;49.164;9.060;2023-12-20T05:58:24;7.93;;;3.90;;
30378;SDS011;17168;49.164;9.060;2023-12-20T06:00:56;6.38;;;3.28;;
30378;SDS011;17168;49.164;9.060;2023-12-20T06:03:29;9.55;;;4.65;;
30378;SDS011;17168;49.164;9.060;2023-12-20T06:06:10;8.10;;;3.83;;
30378;SDS011;17168;49.164;9.060;2023-12-20T06:12:36;9.00;;;5.22;;
30378;SDS011;17168;49.164;9.060;2023-12-20T06:15:27;9.68;;;5.28;;
30378;SDS011;17168;49.164;9.060;2023-12-20T06:18:14;9.95;;;4.97;;
30378;SDS011;17168;49.164;9.060;2023-12-20T06:30:48;9.45;;;5.18;;
30378;SDS011;17168;49.164;9.060;2023-12-20T06:36:23;11.48;;;6.10;;
30378;SDS011;17168;49.164;9.060;2023-12-20T06:38:58;13.32;;;6.35;;
30378;SDS011;17168;49.164;9.060;2023-12-20T06:41:31;9.10;;;5.28;;
30378;SDS011;17168;49.164;9.060;2023-12-20T06:44:03;13.23;;;5.78;;
30378;SDS011;17168;49.164;9.060;2023-12-20T06:46:50;11.18;;;5.35;;
30378;SDS011;17168;49.164;9.060;2023-12-20T06:49:26;11.10;;;5.35;;
30378;SDS011;17168;49.164;9.060;2023-12-20T06:52:15;10.85;;;4.95;;
30378;SDS011;17168;49.164;9.060;2023-12-20T06:54:48;8.45;;;5.00;;
30378;SDS011;17168;49.164;9.060;2023-12-20T06:57:26;8.23;;;5.00;;
30378;SDS011;17168;49.164;9.060;2023-12-20T07:02:33;10.20;;;5.00;;
30378;SDS011;17168;49.164;9.060;2023-12-20T08:17:45;7.65;;;4.63;;
30378;SDS011;17168;49.164;9.060;2023-12-20T12:47:54;5.53;;;1.45;;
30378;SDS011;17168;49.164;9.060;2023-12-20T12:59:55;5.90;;;1.70;;
30378;SDS011;17168;49.164;9.060;2023-12-20T13:13:04;6.68;;;1.98;;
30378;SDS011;17168;49.164;9.060;2023-12-20T13:21:36;9.65;;;1.70;;
30378;SDS011;17168;49.164;9.060;2023-12-20T13:25:10;3.03;;;0.88;;
30378;SDS011;17168;49.164;9.060;2023-12-20T13:35:01;6.93;;;1.48;;
30378;SDS011;17168;49.164;9.060;2023-12-20T13:38:24;7.57;;;1.50;;
30378;SDS011;17168;49.164;9.060;2023-12-20T13:44:52;3.72;;;0.77;;
30378;SDS011;17168;49.164;9.060;2023-12-20T15:12:51;7.13;;;1.25;;
30378;SDS011;17168;49.164;9.060;2023-12-20T15:15:42;6.82;;;1.27;;
30378;SDS011;17168;49.164;9.060;2023-12-20T15:21:48;6.20;;;1.00;;
30378;SDS011;17168;49.164;9.060;2023-12-20T15:24:22;3.20;;;0.60;;
30378;SDS011;17168;49.164;9.060;2023-12-20T15:27:00;8.10;;;1.30;;
30378;SDS011;17168;49.164;9.060;2023-12-20T15:29:34;6.32;;;1.13;;
30378;SDS011;17168;49.164;9.060;2023-12-20T15:32:07;4.95;;;1.25;;
30378;SDS011;17168;49.164;9.060;2023-12-20T15:34:40;4.28;;;1.52;;
30378;SDS011;17168;49.164;9.060;2023-12-20T15:37:12;4.55;;;0.98;;
30378;SDS011;17168;49.164;9.060;2023-12-20T15:39:45;5.57;;;1.35;;
30378;SDS011;17168;49.164;9.060;2023-12-20T15:42:18;3.40;;;0.73;;
30378;SDS011;17168;49.164;9.060;2023-12-20T15:44:53;4.97;;;0.70;;
30378;SDS011;17168;49.164;9.060;2023-12-20T15:47:26;4.60;;;0.93;;
30378;SDS011;17168;49.164;9.060;2023-12-20T15:49:58;8.65;;;1.08;;
30378;SDS011;17168;49.164;9.060;2023-12-20T15:52:30;7.10;;;1.50;;
30378;SDS011;17168;49.164;9.060;2023-12-20T15:55:03;5.70;;;2.35;;
30378;SDS011;17168;49.164;9.060;2023-12-20T15:57:35;4.70;;;0.98;;
30378;SDS011;17168;49.164;9.060;2023-12-20T16:00:25;2.35;;;0.50;;
30378;SDS011;17168;49.164;9.060;2023-12-20T16:02:57;6.63;;;0.50;;
30378;SDS011;17168;49.164;9.060;2023-12-20T16:13:24;2.60;;;0.63;;
30378;SDS011;17168;49.164;9.060;2023-12-20T16:16:30;11.23;;;1.40;;
30378;SDS011;17168;49.164;9.060;2023-12-20T16:19:16;8.85;;;1.15;;
30378;SDS011;17168;49.164;9.060;2023-12-20T16:31:33;4.63;;;1.63;;
30378;SDS011;17168;49.164;9.060;2023-12-20T16:34:13;8.15;;;2.33;;
30378;SDS011;17168;49.164;9.060;2023-12-20T16:37:08;4.45;;;0.85;;
30378;SDS011;17168;49.164;9.060;2023-12-20T16:40:11;5.65;;;0.93;;
30378;SDS011;17168;49.164;9.060;2023-12-20T16:49:58;5.40;;;0.50;;
30378;SDS011;17168;49.164;9.060;2023-12-20T16:56:07;3.58;;;0.82;;
30378;SDS011;17168;49.164;9.060;2023-12-20T16:59:00;2.85;;;0.70;;
30378;SDS011;17168;49.164;9.060;2023-12-20T17:01:41;5.38;;;0.80;;
30378;SDS011;17168;49.164;9.060;2023-12-20T17:04:17;4.43;;;0.82;;
30378;SDS011;17168;49.164;9.060;2023-12-20T17:06:52;3.88;;;0.85;;
30378;SDS011;17168;49.164;9.060;2023-12-20T17:09:27;4.78;;;0.95;;
30378;SDS011;17168;49.164;9.060;2023-12-20T17:12:23;6.10;;;1.33;;
30378;SDS011;17168;49.164;9.060;2023-12-20T17:15:09;4.85;;;1.05;;
30378;SDS011;17168;49.164;9.060;2023-12-20T17:27:46;6.50;;;0.90;;
30378;SDS011;17168;49.164;9.060;2023-12-20T17:34:28;2.78;;;0.40;;
30378;SDS011;17168;49.164;9.060;2023-12-20T17:37:14;6.75;;;0.73;;
30378;SDS011;17168;49.164;9.060;2023-12-20T17:40:11;3.95;;;0.60;;
30378;SDS011;17168;49.164;9.060;2023-12-20T17:42:46;2.97;;;0.50;;
30378;SDS011;17168;49.164;9.060;2023-12-20T17:45:20;1.15;;;0.30;;
30378;SDS011;17168;49.164;9.060;2023-12-20T17:47:52;2.95;;;0.60;;
30378;SDS011;17168;49.164;9.060;2023-12-20T17:50:24;4.45;;;0.47;;
30378;SDS011;17168;49.164;9.060;2023-12-20T17:52:56;5.55;;;0.63;;
30378;SDS011;17168;49.164;9.060;2023-12-20T18:01:10;6.00;;;1.02;;
30378;SDS011;17168;49.164;9.060;2023-12-20T18:03:48;3.83;;;0.93;;
30378;SDS011;17168;49.164;9.060;2023-12-20T18:07:52;6.15;;;0.47;;
30378;SDS011;17168;49.164;9.060;2023-12-20T18:09:57;8.95;;;0.73;;
30378;SDS011;17168;49.164;9.060;2023-12-20T18:12:30;3.35;;;0.43;;
30378;SDS011;17168;49.164;9.060;2023-12-20T18:15:08;3.00;;;0.50;;
30378;SDS011;17168;49.164;9.060;2023-12-20T18:18:24;3.17;;;0.40;;
30378;SDS011;17168;49.164;9.060;2023-12-20T18:20:58;6.93;;;0.73;;
30378;SDS011;17168;49.164;9.060;2023-12-20T18:23:43;3.05;;;0.55;;
30378;SDS011;17168;49.164;9.060;2023-12-20T18:26:32;2.78;;;0.43;;
30378;SDS011;17168;49.164;9.060;2023-12-20T18:29:12;5.53;;;0.70;;
30378;SDS011;17168;49.164;9.060;2023-12-20T18:32:00;4.68;;;0.35;;
30378;SDS011;17168;49.164;9.060;2023-12-20T18:34:36;5.47;;;0.90;;
30378;SDS011;17168;49.164;9.060;2023-12-20T18:37:14;2.42;;;0.50;;
30378;SDS011;17168;49.164;9.060;2023-12-20T18:39:49;2.03;;;0.35;;
30378;SDS011;17168;49.164;9.060;2023-12-20T18:42:30;2.65;;;0.30;;
30378;SDS011;17168;49.164;9.060;2023-12-20T18:49:49;2.60;;;0.40;;
30378;SDS011;17168;49.164;9.060;2023-12-20T18:50:38;2.97;;;0.38;;
30378;SDS011;17168;49.164;9.060;2023-12-20T18:56:26;2.33;;;0.38;;
30378;SDS011;17168;49.164;9.060;2023-12-20T18:59:06;0.93;;;0.10;;
30378;SDS011;17168;49.164;9.060;2023-12-20T19:01:47;2.33;;;0.60;;
30378;SDS011;17168;49.164;9.060;2023-12-20T19:04:33;7.05;;;0.80;;
30378;SDS011;17168;49.164;9.060;2023-12-20T19:10:26;2.20;;;0.35;;
30378;SDS011;17168;49.164;9.060;2023-12-20T19:12:59;3.38;;;0.32;;
30378;SDS011;17168;49.164;9.060;2023-12-20T19:15:41;2.45;;;0.43;;
30378;SDS011;17168;49.164;9.060;2023-12-20T19:31:04;3.42;;;0.75;;
30378;SDS011;17168;49.164;9.060;2023-12-20T19:33:52;2.58;;;0.22;;
30378;SDS011;17168;49.164;9.060;2023-12-20T19:36:35;1.73;;;0.20;;
30378;SDS011;17168;49.164;9.060;2023-12-20T19:42:00;3.55;;;0.30;;
30378;SDS011;17168;49.164;9.060;2023-12-20T19:44:38;1.52;;;0.20;;
30378;SDS011;17168;49.164;9.060;2023-12-20T19:47:26;3.47;;;0.52;;
30378;SDS011;17168;49.164;9.060;2023-12-20T19:50:09;2.40;;;0.25;;
30378;SDS011;17168;49.164;9.060;2023-12-20T19:53:10;1.60;;;0.28;;
30378;SDS011;17168;49.164;9.060;2023-12-20T19:59:21;5.07;;;0.38;;
30378;SDS011;17168;49.164;9.060;2023-12-20T20:02:09;2.42;;;0.57;;
30378;SDS011;17168;49.164;9.060;2023-12-20T20:05:00;5.55;;;0.82;;
30378;SDS011;17168;49.164;9.060;2023-12-20T20:07:36;3.42;;;0.47;;
30378;SDS011;17168;49.164;9.060;2023-12-20T20:10:10;2.80;;;1.08;;
30378;SDS011;17168;49.164;9.060;2023-12-20T20:16:39;4.07;;;0.38;;
30378;SDS011;17168;49.164;9.060;2023-12-20T20:26:29;3.90;;;0.45;;
30378;SDS011;17168;49.164;9.060;2023-12-20T20:29:12;1.67;;;0.28;;
30378;SDS011;17168;49.164;9.060;2023-12-20T20:40:54;2.25;;;0.40;;
30378;SDS011;17168;49.164;9.060;2023-12-20T20:43:37;2.50;;;0.43;;
30378;SDS011;17168;49.164;9.060;2023-12-20T20:46:29;4.75;;;0.57;;
30378;SDS011;17168;49.164;9.060;2023-12-20T20:49:07;5.68;;;0.55;;
30378;SDS011;17168;49.164;9.060;2023-12-20T20:52:00;3.58;;;0.30;;
30378;SDS011;17168;49.164;9.060;2023-12-20T21:01:08;3.40;;;0.25;;
30378;SDS011;17168;49.164;9.060;2023-12-20T21:07:24;1.70;;;0.13;;
30378;SDS011;17168;49.164;9.060;2023-12-20T21:09:52;3.40;;;0.35;;
30378;SDS011;17168;49.164;9.060;2023-12-20T21:31:30;0.60;;;0.10;;
30378;SDS011;17168;49.164;9.060;2023-12-20T21:34:25;1.23;;;0.20;;
30378;SDS011;17168;49.164;9.060;2023-12-20T21:40:01;3.15;;;0.20;;
30378;SDS011;17168;49.164;9.060;2023-12-20T21:44:52;2.50;;;0.20;;
30378;SDS011;17168;49.164;9.060;2023-12-20T21:50:01;1.70;;;0.10;;
30378;SDS011;17168;49.164;9.060;2023-12-20T21:52:34;2.25;;;0.10;;
30378;SDS011;17168;49.164;9.060;2023-12-20T21:55:13;1.65;;;0.00;;
30378;SDS011;17168;49.164;9.060;2023-12-20T22:00:22;3.60;;;0.20;;
30378;SDS011;17168;49.164;9.060;2023-12-20T22:03:07;0.10;;;0.00;;
30378;SDS011;17168;49.164;9.060;2023-12-20T22:05:43;1.67;;;0.20;;
30378;SDS011;17168;49.164;9.060;2023-12-20T22:08:19;1.73;;;0.20;;
30378;SDS011;17168;49.164;9.060;2023-12-20T22:10:57;0.77;;;0.03;;
30378;SDS011;17168;49.164;9.060;2023-12-20T22:13:34;1.00;;;0.13;;
30378;SDS011;17168;49.164;9.060;2023-12-20T22:16:10;1.02;;;0.13;;
30378;SDS011;17168;49.164;9.060;2023-12-20T22:19:18;1.45;;;0.10;;
30378;SDS011;17168;49.164;9.060;2023-12-20T22:21:56;0.60;;;0.20;;
30378;SDS011;17168;49.164;9.060;2023-12-20T22:24:35;0.73;;;0.15;;
30378;SDS011;17168;49.164;9.060;2023-12-20T22:27:07;0.52;;;0.00;;
30378;SDS011;17168;49.164;9.060;2023-12-20T22:29:40;0.85;;;0.10;;
30378;SDS011;17168;49.164;9.060;2023-12-20T22:32:12;2.03;;;0.17;;
30378;SDS011;17168;49.164;9.060;2023-12-20T22:34:45;0.70;;;0.10;;
30378;SDS011;17168;49.164;9.060;2023-12-20T22:37:20;0.85;;;0.10;;
30378;SDS011;17168;49.164;9.060;2023-12-20T22:39:52;1.20;;;0.90;;
30378;SDS011;17168;49.164;9.060;2023-12-20T22:42:25;0.75;;;0.10;;
30378;SDS011;17168;49.164;9.060;2023-12-20T22:44:57;1.25;;;0.10;;
30378;SDS011;17168;49.164;9.060;2023-12-20T22:47:29;2.53;;;0.22;;
30378;SDS011;17168;49.164;9.060;2023-12-20T22:50:04;0.50;;;0.00;;
30378;SDS011;17168;49.164;9.060;2023-12-20T22:52:40;0.50;;;0.00;;
30378;SDS011;17168;49.164;9.060;2023-12-20T22:55:14;1.40;;;0.20;;
30378;SDS011;17168;49.164;9.060;2023-12-20T22:57:47;0.60;;;0.20;;
30378;SDS011;17168;49.164;9.060;2023-12-20T23:00:20;1.00;;;0.10;;
30378;SDS011;17168;49.164;9.060;2023-12-20T23:02:58;2.25;;;0.00;;
30378;SDS011;17168;49.164;9.060;2023-12-20T23:05:30;1.30;;;0.00;;
30378;SDS011;17168;49.164;9.060;2023-12-20T23:08:06;3.75;;;0.32;;
30378;SDS011;17168;49.164;9.060;2023-12-20T23:10:39;1.05;;;0.10;;
30378;SDS011;17168;49.164;9.060;2023-12-20T23:13:12;0.68;;;0.10;;
30378;SDS011;17168;49.164;9.060;2023-12-20T23:15:48;1.77;;;0.25;;
30378;SDS011;17168;49.164;9.060;2023-12-20T23:18:21;0.93;;;0.10;;
30378;SDS011;17168;49.164;9.060;2023-12-20T23:20:55;2.40;;;0.13;;
30378;SDS011;17168;49.164;9.060;2023-12-20T23:23:30;2.28;;;0.20;;
30378;SDS011;17168;49.164;9.060;2023-12-20T23:26:03;1.75;;;0.13;;
30378;SDS011;17168;49.164;9.060;2023-12-20T23:28:35;1.50;;;0.20;;
30378;SDS011;17168;49.164;9.060;2023-12-20T23:31:10;1.10;;;0.00;;
30378;SDS011;17168;49.164;9.060;2023-12-20T23:33:43;1.35;;;0.10;;
30378;SDS011;17168;49.164;9.060;2023-12-20T23:36:17;0.40;;;0.10;;
30378;SDS011;17168;49.164;9.060;2023-12-20T23:38:54;1.63;;;0.00;;
30378;SDS011;17168;49.164;9.060;2023-12-20T23:41:27;2.72;;;0.10;;
30378;SDS011;17168;49.164;9.060;2023-12-20T23:44:05;1.65;;;0.10;;
30378;SDS011;17168;49.164;9.060;2023-12-20T23:49:23;2.47;;;0.13;;
30378;SDS011;17168;49.164;9.060;2023-12-20T23:51:58;0.20;;;0.00;;
30378;SDS011;17168;49.164;9.060;2023-12-20T23:54:59;1.02;;;0.10;;
30378;SDS011;17168;49.164;9.060;2023-12-20T23:57:41;0.75;;;0.17;;
